createdAt,value
2022-10-04T00:01:50.529Z,8.13
2022-10-04T00:04:23.857Z,5.65
2022-10-04T00:07:16.467Z,2.40
2022-10-04T00:09:49.391Z,8.32
2022-10-04T00:12:31.881Z,5.25
2022-10-04T00:15:04.545Z,2.78
2022-10-04T00:17:35.543Z,3.55
2022-10-04T00:20:05.320Z,5.47
2022-10-04T00:22:33.097Z,3.75
2022-10-04T00:25:33.842Z,4.53
2022-10-04T00:28:25.695Z,7.13
2022-10-04T00:31:10.912Z,4.85
2022-10-04T00:33:55.442Z,9.13
2022-10-04T00:36:25.439Z,1.98
2022-10-04T00:39:15.222Z,3.42
2022-10-04T00:41:48.099Z,5.75
2022-10-04T00:44:34.778Z,6.57
2022-10-04T00:47:14.220Z,10.95
2022-10-04T00:49:45.192Z,6.28
2022-10-04T00:52:27.395Z,8.20
2022-10-04T00:55:00.311Z,9.88
2022-10-04T00:57:35.178Z,4.22
2022-10-04T01:00:15.455Z,11.70
2022-10-04T01:02:43.931Z,7.60
2022-10-04T01:05:40.097Z,3.75
2022-10-04T01:08:13.725Z,4.78
2022-10-04T01:11:02.568Z,9.10
2022-10-04T01:13:38.582Z,8.18
2022-10-04T01:16:19.682Z,9.27
2022-10-04T01:18:47.671Z,9.95
2022-10-04T01:21:20.265Z,13.77
2022-10-04T01:23:53.661Z,5.97
2022-10-04T01:26:30.155Z,11.32
2022-10-04T01:29:05.871Z,7.80
2022-10-04T01:34:05.122Z,3.65
2022-10-04T01:36:33.614Z,8.68
2022-10-04T01:39:00.903Z,9.20
2022-10-04T01:41:40.357Z,8.02
2022-10-04T01:44:17.974Z,12.25
2022-10-04T01:46:46.045Z,6.68
2022-10-04T01:49:20.006Z,13.13
2022-10-04T01:52:05.629Z,11.10
2022-10-04T01:54:43.062Z,7.22
2022-10-04T01:57:18.369Z,9.38
2022-10-04T01:59:56.584Z,5.57
2022-10-04T02:03:01.388Z,8.90
2022-10-04T02:05:35.674Z,9.80
2022-10-04T02:08:10.847Z,10.93
2022-10-04T02:10:43.426Z,10.07
2022-10-04T02:13:15.726Z,8.48
2022-10-04T02:15:44.784Z,11.50
2022-10-04T02:18:18.726Z,12.10
2022-10-04T02:20:48.284Z,13.77
2022-10-04T02:23:19.259Z,8.13
2022-10-04T02:25:46.587Z,9.25
2022-10-04T02:28:15.435Z,12.18
2022-10-04T02:31:07.897Z,6.35
2022-10-04T02:33:43.667Z,13.15
2022-10-04T02:38:54.365Z,10.32
2022-10-04T02:41:34.296Z,12.50
2022-10-04T02:44:29.221Z,11.18
2022-10-04T02:47:17.840Z,9.93
2022-10-04T02:49:48.938Z,15.05
2022-10-04T02:52:26.753Z,10.48
2022-10-04T02:55:24.895Z,12.15
2022-10-04T02:57:52.545Z,7.95
2022-10-04T03:00:48.850Z,10.75
2022-10-04T03:03:34.791Z,10.00
2022-10-04T03:06:08.902Z,7.28
2022-10-04T03:08:47.819Z,8.60
2022-10-04T03:11:16.182Z,10.60
2022-10-04T03:13:47.834Z,6.90
2022-10-04T03:16:15.442Z,8.45
2022-10-04T03:18:43.958Z,8.05
2022-10-04T03:21:14.693Z,12.27
2022-10-04T03:23:43.096Z,11.35
2022-10-04T03:26:39.090Z,11.73
2022-10-04T03:29:11.808Z,10.85
2022-10-04T03:31:44.323Z,21.20
2022-10-04T03:34:22.523Z,16.85
2022-10-04T03:36:53.348Z,11.32
2022-10-04T03:39:29.756Z,14.18
2022-10-04T03:41:58.518Z,15.38
2022-10-04T03:44:26.012Z,12.50
2022-10-04T03:46:53.003Z,16.63
2022-10-04T03:49:32.639Z,14.85
2022-10-04T03:52:01.247Z,19.67
2022-10-04T03:54:29.417Z,17.00
2022-10-04T03:56:58.632Z,13.55
2022-10-04T03:59:28.017Z,13.68
2022-10-04T04:02:36.215Z,9.07
2022-10-04T04:05:44.734Z,9.73
2022-10-04T04:08:24.312Z,15.32
2022-10-04T04:10:56.001Z,11.57
2022-10-04T04:13:44.369Z,12.15
2022-10-04T04:16:12.226Z,10.02
2022-10-04T04:18:43.595Z,9.82
2022-10-04T04:21:16.232Z,11.13
2022-10-04T04:24:23.079Z,14.98
2022-10-04T04:27:03.166Z,12.50
2022-10-04T04:29:46.732Z,14.75
2022-10-04T04:32:25.515Z,8.90
2022-10-04T04:34:53.986Z,11.48
2022-10-04T04:37:21.273Z,21.33
2022-10-04T04:39:54.793Z,5.65
2022-10-04T04:42:39.569Z,9.45
2022-10-04T04:45:23.826Z,10.18
2022-10-04T04:47:54.290Z,10.95
2022-10-04T04:50:25.700Z,10.80
2022-10-04T04:53:19.448Z,11.70
2022-10-04T04:56:05.378Z,26.23
2022-10-04T04:58:37.033Z,27.98
2022-10-04T05:01:23.200Z,35.15
2022-10-04T05:06:42.183Z,17.52
2022-10-04T05:09:30.480Z,11.50
2022-10-04T05:12:22.049Z,11.27
2022-10-04T05:14:52.546Z,14.95
2022-10-04T05:17:27.933Z,17.45
2022-10-04T05:19:59.556Z,33.15
2022-10-04T05:22:28.967Z,14.68
2022-10-04T05:25:02.937Z,17.05
2022-10-04T05:27:39.653Z,9.52
2022-10-04T05:30:38.030Z,14.43
2022-10-04T05:33:14.625Z,9.50
2022-10-04T05:35:50.472Z,10.90
2022-10-04T05:38:39.651Z,15.80
2022-10-04T05:41:35.571Z,11.40
2022-10-04T05:44:04.179Z,15.00
2022-10-04T05:46:35.501Z,18.52
2022-10-04T05:49:19.003Z,11.38
2022-10-04T05:52:14.234Z,12.80
2022-10-04T05:54:41.513Z,10.88
2022-10-04T05:57:47.438Z,13.50
2022-10-04T06:00:21.002Z,13.63
2022-10-04T06:03:08.863Z,12.68
2022-10-04T06:05:49.399Z,16.45
2022-10-04T06:08:34.726Z,15.43
2022-10-04T06:11:50.075Z,18.50
2022-10-04T06:14:37.964Z,14.57
2022-10-04T06:17:38.126Z,16.77
2022-10-04T06:20:24.142Z,16.23
2022-10-04T06:23:00.177Z,21.60
2022-10-04T06:25:38.586Z,16.15
2022-10-04T06:28:18.556Z,11.85
2022-10-04T06:31:26.999Z,15.30
2022-10-04T06:34:24.670Z,21.40
2022-10-04T06:37:06.795Z,24.55
2022-10-04T06:39:53.019Z,22.60
2022-10-04T06:45:52.928Z,21.35
2022-10-04T06:48:46.324Z,18.55
2022-10-04T06:51:34.264Z,20.48
2022-10-04T06:54:39.548Z,30.45
2022-10-04T06:57:40.776Z,23.42
2022-10-04T07:00:17.473Z,25.00
2022-10-04T07:03:12.580Z,25.90
2022-10-04T07:06:11.331Z,27.08
2022-10-04T07:08:56.052Z,25.67
2022-10-04T07:11:32.889Z,29.15
2022-10-04T07:14:20.755Z,22.40
2022-10-04T07:17:00.740Z,26.15
2022-10-04T07:19:52.367Z,31.30
2022-10-04T07:22:31.289Z,25.40
2022-10-04T07:25:19.577Z,21.23
2022-10-04T07:28:27.913Z,24.17
2022-10-04T07:33:35.809Z,25.60
2022-10-04T07:36:13.578Z,22.27
2022-10-04T07:38:51.370Z,22.05
2022-10-04T07:41:32.703Z,23.55
2022-10-04T07:44:16.129Z,23.27
2022-10-04T07:46:42.955Z,21.02
2022-10-04T07:49:16.191Z,16.95
2022-10-04T07:52:36.191Z,15.40
2022-10-04T07:55:17.977Z,17.48
2022-10-04T07:58:23.578Z,13.48
2022-10-04T08:01:01.117Z,15.73
2022-10-04T08:04:01.977Z,16.17
2022-10-04T08:06:39.321Z,12.02
2022-10-04T08:09:52.093Z,13.75
2022-10-04T08:12:34.922Z,12.73
2022-10-04T08:15:13.934Z,12.52
2022-10-04T08:18:53.562Z,14.43
2022-10-04T08:21:32.897Z,13.60
2022-10-04T08:24:39.428Z,14.30
2022-10-04T08:28:03.507Z,9.27
2022-10-04T08:31:34.811Z,12.10
2022-10-04T08:34:31.990Z,10.52
2022-10-04T08:37:31.262Z,14.40
2022-10-04T08:40:26.719Z,10.13
2022-10-04T08:43:24.426Z,8.88
2022-10-04T08:46:21.659Z,14.48
2022-10-04T08:49:10.902Z,7.40
2022-10-04T08:52:24.541Z,9.60
2022-10-04T08:55:35.225Z,9.68
2022-10-04T08:58:16.229Z,10.70
2022-10-04T09:01:26.725Z,9.73
2022-10-04T09:04:27.376Z,10.48
2022-10-04T09:07:17.476Z,14.48
2022-10-04T09:09:56.350Z,8.90
2022-10-04T09:12:26.349Z,7.75
2022-10-04T09:15:13.397Z,7.75
2022-10-04T09:18:01.995Z,10.07
2022-10-04T09:20:47.294Z,9.32
2022-10-04T09:23:32.072Z,6.85
2022-10-04T09:26:40.879Z,12.18
2022-10-04T09:29:57.894Z,5.68
2022-10-04T09:32:30.357Z,7.63
2022-10-04T09:35:37.497Z,8.88
2022-10-04T09:39:06.098Z,7.28
2022-10-04T09:42:16.499Z,10.27
2022-10-04T09:45:21.490Z,10.77
2022-10-04T09:48:29.753Z,12.40
2022-10-04T09:51:20.601Z,9.98
2022-10-04T09:54:15.625Z,7.05
2022-10-04T09:57:16.407Z,7.57
2022-10-04T09:59:53.117Z,9.75
2022-10-04T10:03:06.652Z,9.80
2022-10-04T10:06:27.248Z,9.95
2022-10-04T10:09:18.448Z,11.35
2022-10-04T10:12:31.968Z,8.00
2022-10-04T10:15:58.172Z,10.23
2022-10-04T10:19:03.457Z,9.07
2022-10-04T10:21:59.571Z,7.63
2022-10-04T10:24:44.341Z,7.75
2022-10-04T10:27:43.109Z,10.05
2022-10-04T10:30:19.243Z,9.27
2022-10-04T10:33:33.101Z,9.55
2022-10-04T10:36:21.497Z,9.45
2022-10-04T10:39:05.116Z,5.53
2022-10-04T10:42:16.837Z,8.23
2022-10-04T10:45:17.808Z,8.45
2022-10-04T10:47:59.759Z,8.60
2022-10-04T10:51:10.409Z,14.23
2022-10-04T10:54:25.437Z,15.70
2022-10-04T10:57:15.539Z,8.18
2022-10-04T11:00:14.251Z,9.10
2022-10-04T11:03:23.194Z,4.97
2022-10-04T11:06:10.725Z,6.40
2022-10-04T11:09:14.686Z,5.70
2022-10-04T11:11:47.526Z,5.72
2022-10-04T11:14:54.631Z,8.88
2022-10-04T11:17:42.546Z,4.20
2022-10-04T11:21:01.244Z,5.18
2022-10-04T11:24:14.939Z,7.50
2022-10-04T11:27:04.318Z,7.97
2022-10-04T11:29:31.137Z,9.07
2022-10-04T11:32:30.811Z,7.75
2022-10-04T11:35:46.310Z,8.45
2022-10-04T11:38:50.965Z,6.88
2022-10-04T11:41:51.892Z,8.82
2022-10-04T11:44:55.254Z,6.78
2022-10-04T11:47:25.054Z,7.65
2022-10-04T11:50:08.496Z,4.47
2022-10-04T11:53:13.971Z,6.38
2022-10-04T11:56:04.603Z,7.75
2022-10-04T11:59:21.313Z,7.30
2022-10-04T12:02:34.841Z,12.75
2022-10-04T12:06:01.627Z,8.63
2022-10-04T12:09:28.892Z,6.37
2022-10-04T12:12:38.641Z,11.38
2022-10-04T12:15:28.174Z,7.82
2022-10-04T12:18:34.426Z,6.78
2022-10-04T12:21:23.985Z,7.22
2022-10-04T12:24:47.739Z,9.13
2022-10-04T12:27:44.153Z,15.60
2022-10-04T12:33:10.155Z,3.85
2022-10-04T12:36:05.878Z,8.05
2022-10-04T12:39:00.001Z,9.82
2022-10-04T12:41:41.373Z,7.63
2022-10-04T12:44:28.320Z,7.20
2022-10-04T12:47:24.460Z,2.42
2022-10-04T12:50:26.309Z,5.38
2022-10-04T12:53:34.489Z,3.92
2022-10-04T12:56:33.053Z,4.55
2022-10-04T12:59:21.663Z,7.72
2022-10-04T13:02:33.830Z,6.95
2022-10-04T13:05:12.992Z,14.27
2022-10-04T13:08:34.329Z,5.13
2022-10-04T13:11:42.554Z,4.38
2022-10-04T13:14:37.113Z,3.80
2022-10-04T13:17:27.714Z,8.48
2022-10-04T13:20:37.991Z,10.55
2022-10-04T13:23:18.083Z,4.65
2022-10-04T13:26:03.962Z,4.68
2022-10-04T13:29:15.658Z,5.45
2022-10-04T13:31:59.203Z,6.13
2022-10-04T13:34:36.917Z,4.85
2022-10-04T13:37:53.479Z,7.38
2022-10-04T13:40:23.355Z,6.60
2022-10-04T13:43:17.058Z,7.93
2022-10-04T13:46:23.480Z,16.00
2022-10-04T13:49:21.117Z,12.38
2022-10-04T13:52:13.684Z,9.85
2022-10-04T13:55:24.552Z,7.93
2022-10-04T13:58:28.247Z,3.38
2022-10-04T14:01:30.602Z,3.47
2022-10-04T14:04:32.341Z,5.90
2022-10-04T14:07:30.741Z,5.65
2022-10-04T14:10:38.688Z,4.22
2022-10-04T14:13:43.106Z,3.90
2022-10-04T14:16:37.619Z,4.30
2022-10-04T14:19:44.412Z,10.95
2022-10-04T14:22:36.708Z,10.75
2022-10-04T14:25:55.792Z,3.30
2022-10-04T14:28:50.687Z,5.90
2022-10-04T14:31:37.120Z,3.53
2022-10-04T14:34:16.118Z,5.70
2022-10-04T14:37:03.847Z,4.00
2022-10-04T14:40:12.272Z,4.38
2022-10-04T14:42:48.248Z,5.22
2022-10-04T14:45:56.621Z,3.88
2022-10-04T14:48:35.925Z,4.20
2022-10-04T14:51:45.975Z,6.38
2022-10-04T14:54:23.137Z,3.88
2022-10-04T14:57:01.010Z,4.82
2022-10-04T14:59:56.529Z,2.85
2022-10-04T15:02:48.440Z,6.13
2022-10-04T15:05:35.500Z,6.03
2022-10-04T15:08:35.359Z,6.35
2022-10-04T15:11:17.240Z,7.22
2022-10-04T15:13:58.598Z,5.65
2022-10-04T15:16:53.093Z,5.82
2022-10-04T15:19:32.886Z,4.93
2022-10-04T15:22:22.378Z,3.92
2022-10-04T15:24:52.331Z,5.65
2022-10-04T15:27:34.197Z,5.70
2022-10-04T15:30:23.979Z,8.85
2022-10-04T15:33:31.783Z,6.97
2022-10-04T15:35:58.955Z,3.40
2022-10-04T15:38:36.643Z,2.90
2022-10-04T15:41:29.763Z,6.30
2022-10-04T15:44:11.836Z,5.88
2022-10-04T15:47:09.868Z,7.95
2022-10-04T15:50:06.054Z,3.05
2022-10-04T15:53:06.760Z,3.50
2022-10-04T15:55:36.747Z,4.82
2022-10-04T15:58:27.234Z,6.80
2022-10-04T16:01:46.689Z,6.72
2022-10-04T16:04:44.796Z,6.05
2022-10-04T16:07:49.063Z,10.60
2022-10-04T16:10:55.232Z,4.75
2022-10-04T16:13:56.817Z,9.00
2022-10-04T16:16:30.001Z,8.40
2022-10-04T16:19:22.520Z,7.03
2022-10-04T16:22:26.786Z,4.80
2022-10-04T16:24:59.789Z,6.75
2022-10-04T16:28:05.591Z,3.95
2022-10-04T16:31:20.170Z,4.25
2022-10-04T16:34:07.178Z,6.30
2022-10-04T16:37:18.143Z,4.20
2022-10-04T16:40:00.350Z,5.97
2022-10-04T16:42:45.341Z,6.78
2022-10-04T16:45:12.336Z,3.58
2022-10-04T16:47:58.008Z,7.45
2022-10-04T16:51:00.106Z,6.00
2022-10-04T16:54:29.080Z,5.60
2022-10-04T16:57:00.552Z,4.15
2022-10-04T16:59:51.607Z,3.67
2022-10-04T17:02:43.765Z,6.78
2022-10-04T17:05:48.943Z,4.47
2022-10-04T17:08:15.661Z,7.82
2022-10-04T17:11:09.870Z,6.90
2022-10-04T17:13:56.949Z,3.28
2022-10-04T17:16:57.314Z,6.18
2022-10-04T17:19:45.540Z,5.25
2022-10-04T17:22:36.393Z,9.48
2022-10-04T17:25:26.678Z,5.30
2022-10-04T17:28:00.560Z,6.05
2022-10-04T17:30:30.907Z,5.35
2022-10-04T17:33:26.870Z,5.07
2022-10-04T17:36:19.600Z,10.88
2022-10-04T17:39:15.626Z,5.78
2022-10-04T17:42:08.167Z,11.30
2022-10-04T17:44:56.767Z,6.38
2022-10-04T17:48:20.400Z,14.88
2022-10-04T17:51:20.931Z,7.32
2022-10-04T17:54:14.898Z,10.88
2022-10-04T17:56:53.165Z,11.95
2022-10-04T17:59:31.015Z,8.88
2022-10-04T18:02:22.555Z,7.63
2022-10-04T18:05:00.747Z,5.85
2022-10-04T18:07:48.882Z,8.60
2022-10-04T18:10:35.819Z,8.38
2022-10-04T18:13:30.523Z,6.55
2022-10-04T18:16:43.885Z,7.90
2022-10-04T18:19:36.277Z,8.80
2022-10-04T18:22:21.963Z,8.13
2022-10-04T18:25:23.528Z,8.60
2022-10-04T18:28:06.885Z,8.57
2022-10-04T18:30:52.920Z,5.65
2022-10-04T18:33:44.613Z,8.95
2022-10-04T18:36:20.992Z,9.50
2022-10-04T18:39:17.826Z,9.80
2022-10-04T18:42:11.942Z,11.07
2022-10-04T18:44:47.876Z,9.73
2022-10-04T18:47:35.792Z,9.18
2022-10-04T18:50:20.080Z,6.03
2022-10-04T18:53:21.444Z,10.32
2022-10-04T18:56:05.789Z,9.68
2022-10-04T18:59:29.057Z,9.70
2022-10-04T19:02:13.192Z,8.98
2022-10-04T19:05:10.868Z,9.40
2022-10-04T19:07:57.374Z,13.80
2022-10-04T19:10:45.751Z,13.63
2022-10-04T19:13:34.052Z,4.80
2022-10-04T19:16:13.010Z,11.55
2022-10-04T19:19:27.284Z,11.07
2022-10-04T19:22:11.846Z,9.93
2022-10-04T19:25:23.081Z,8.45
2022-10-04T19:28:08.420Z,8.52
2022-10-04T19:31:00.779Z,9.95
2022-10-04T19:33:48.538Z,9.48
2022-10-04T19:36:39.198Z,13.93
2022-10-04T19:39:35.459Z,7.60
2022-10-04T19:42:11.704Z,9.75
2022-10-04T19:44:58.320Z,6.82
2022-10-04T19:47:50.256Z,9.25
2022-10-04T19:50:33.299Z,7.50
2022-10-04T19:53:07.871Z,9.85
2022-10-04T19:56:01.172Z,7.78
2022-10-04T19:58:37.218Z,5.43
2022-10-04T20:01:12.759Z,7.07
2022-10-04T20:06:07.647Z,9.25
2022-10-04T20:09:02.824Z,9.30
2022-10-04T20:11:42.030Z,10.55
2022-10-04T20:14:11.852Z,6.65
2022-10-04T20:16:49.128Z,8.95
2022-10-04T20:19:24.593Z,5.85
2022-10-04T20:21:51.508Z,8.02
2022-10-04T20:24:38.332Z,9.00
2022-10-04T20:27:06.848Z,11.35
2022-10-04T20:29:39.532Z,6.03
2022-10-04T20:32:12.141Z,12.25
2022-10-04T20:34:38.942Z,4.88
2022-10-04T20:37:08.263Z,8.73
2022-10-04T20:39:42.248Z,8.65
2022-10-04T20:42:30.048Z,7.00
2022-10-04T20:45:03.913Z,6.88
2022-10-04T20:47:43.959Z,6.65
2022-10-04T20:50:11.812Z,5.18
2022-10-04T20:52:55.797Z,4.90
2022-10-04T20:55:35.490Z,11.23
2022-10-04T20:58:35.166Z,5.47
2022-10-04T21:01:36.700Z,5.30
2022-10-04T21:04:30.360Z,8.82
2022-10-04T21:07:03.285Z,7.10
2022-10-04T21:09:32.694Z,11.52
2022-10-04T21:12:00.974Z,6.03
2022-10-04T21:14:37.037Z,6.90
2022-10-04T21:17:37.329Z,10.88
2022-10-04T21:20:06.747Z,6.50
2022-10-04T21:22:35.183Z,10.05
2022-10-04T21:25:27.748Z,7.80
2022-10-04T21:27:54.877Z,4.35
2022-10-04T21:30:23.065Z,7.13
2022-10-04T21:32:50.105Z,6.05
2022-10-04T21:35:17.458Z,8.93
2022-10-04T21:37:44.361Z,10.65
2022-10-04T21:40:13.102Z,5.78
2022-10-04T21:42:40.704Z,8.23
2022-10-04T21:45:08.184Z,7.25
2022-10-04T21:47:35.614Z,7.38
2022-10-04T21:50:02.988Z,6.57
2022-10-04T21:52:30.249Z,5.45
2022-10-04T21:54:57.581Z,8.25
2022-10-04T21:57:24.978Z,7.50
2022-10-04T21:59:52.727Z,9.45
2022-10-04T22:02:19.727Z,6.00
2022-10-04T22:04:46.654Z,6.82
2022-10-04T22:07:14.286Z,5.38
2022-10-04T22:09:43.300Z,6.82
2022-10-04T22:12:10.569Z,9.05
2022-10-04T22:14:37.436Z,9.98
2022-10-04T22:17:04.876Z,11.52
2022-10-04T22:19:31.945Z,5.28
2022-10-04T22:21:59.212Z,8.05
2022-10-04T22:24:26.210Z,7.80
2022-10-04T22:26:53.498Z,6.53
2022-10-04T22:29:20.450Z,8.40
2022-10-04T22:31:51.492Z,8.27
2022-10-04T22:34:22.890Z,8.15
2022-10-04T22:36:52.523Z,9.73
2022-10-04T22:39:20.541Z,8.23
2022-10-04T22:42:00.632Z,8.18
2022-10-04T22:44:37.925Z,7.65
2022-10-04T22:47:11.938Z,6.95
2022-10-04T22:49:42.366Z,6.65
2022-10-04T22:52:27.279Z,7.13
2022-10-04T22:54:58.466Z,7.85
2022-10-04T22:57:25.486Z,7.65
2022-10-04T22:59:53.063Z,6.30
2022-10-04T23:02:28.806Z,7.38
2022-10-04T23:05:02.064Z,7.05
2022-10-04T23:07:29.238Z,8.45
2022-10-04T23:09:56.651Z,10.27
2022-10-04T23:12:23.600Z,9.32
2022-10-04T23:14:51.007Z,7.82
2022-10-04T23:17:24.763Z,10.02
2022-10-04T23:20:18.154Z,16.35
2022-10-04T23:22:47.963Z,9.27
2022-10-04T23:25:29.615Z,8.40
2022-10-04T23:28:05.715Z,7.30
2022-10-04T23:30:32.671Z,7.35
2022-10-04T23:33:01.139Z,6.75
2022-10-04T23:35:34.174Z,10.45
2022-10-04T23:38:06.909Z,7.90
2022-10-04T23:40:34.305Z,8.80
2022-10-04T23:43:04.394Z,8.32
2022-10-04T23:45:31.790Z,6.55
2022-10-04T23:48:03.706Z,7.85
2022-10-04T23:50:36.335Z,12.40
2022-10-04T23:53:07.449Z,8.13
2022-10-04T23:55:38.883Z,6.63
2022-10-04T23:58:30.370Z,8.35
